createdAt,value
2016-12-09T00:00:02.771Z,0
2016-12-09T00:01:33.802Z,0
2016-12-09T00:03:06.252Z,0
2016-12-09T00:04:37.818Z,0
2016-12-09T00:06:09.808Z,0
2016-12-09T00:07:41.382Z,0
2016-12-09T00:09:13.214Z,0
2016-12-09T00:10:45.738Z,0
2016-12-09T00:11:57.777Z,0
2016-12-09T00:13:29.412Z,0
2016-12-09T00:15:00.277Z,0
2016-12-09T00:16:30.937Z,0
2016-12-09T00:19:38.487Z,0
2016-12-09T00:21:09.286Z,0
2016-12-09T00:22:40.633Z,0
2016-12-09T00:24:12.021Z,0
2016-12-09T00:25:24.048Z,0
2016-12-09T00:26:56.211Z,0
2016-12-09T00:28:27.571Z,0
2016-12-09T00:29:53.392Z,0
2016-12-09T00:31:25.617Z,0
2016-12-09T00:32:57.936Z,0
2016-12-09T00:34:10.400Z,0
2016-12-09T00:35:42.227Z,0
2016-12-09T00:37:14.031Z,0
2016-12-09T00:38:45.189Z,0
2016-12-09T00:40:17.049Z,0
2016-12-09T00:41:48.913Z,0
2016-12-09T00:43:20.672Z,0
2016-12-09T00:44:32.854Z,0
2016-12-09T00:46:04.342Z,0
2016-12-09T00:47:36.098Z,0
2016-12-09T00:49:08.479Z,0
2016-12-09T00:50:40.410Z,0
2016-12-09T00:52:13.191Z,0
2016-12-09T00:53:46.624Z,0
2016-12-09T00:55:18.309Z,0
2016-12-09T00:56:49.507Z,0
2016-12-09T00:58:22.232Z,0
2016-12-09T00:59:53.762Z,0
2016-12-09T01:01:22.745Z,0
2016-12-09T01:02:59.648Z,0
2016-12-09T01:04:36.324Z,0
2016-12-09T01:06:34.872Z,0
2016-12-09T01:08:05.160Z,0
2016-12-09T01:09:18.255Z,0
2016-12-09T01:10:49.382Z,0
2016-12-09T01:12:20.795Z,0
2016-12-09T01:13:52.323Z,0
2016-12-09T01:15:18.811Z,0
2016-12-09T01:17:00.099Z,0
2016-12-09T01:18:33.955Z,0
2016-12-09T01:20:05.315Z,0
2016-12-09T01:21:36.673Z,0
2016-12-09T01:23:08.165Z,0
2016-12-09T01:24:20.025Z,0
2016-12-09T01:25:51.455Z,0
2016-12-09T01:27:22.385Z,0
2016-12-09T01:28:53.253Z,0
2016-12-09T01:30:24.722Z,0
2016-12-09T01:31:56.149Z,0
2016-12-09T01:33:27.473Z,0
2016-12-09T01:34:39.249Z,0
2016-12-09T01:36:10.279Z,0
2016-12-09T01:37:41.965Z,0
2016-12-09T01:39:12.931Z,0
2016-12-09T01:40:43.924Z,0
2016-12-09T01:42:15.089Z,0
2016-12-09T01:43:27.463Z,0
2016-12-09T01:44:58.422Z,0
2016-12-09T01:46:29.380Z,0
2016-12-09T01:48:00.593Z,0
2016-12-09T01:49:31.456Z,0
2016-12-09T01:51:02.356Z,0
2016-12-09T01:52:14.434Z,0
2016-12-09T01:53:45.416Z,0
2016-12-09T01:55:16.831Z,0
2016-12-09T01:56:47.560Z,0
2016-12-09T01:58:18.422Z,0
2016-12-09T01:59:49.671Z,0
2016-12-09T02:01:20.716Z,0
2016-12-09T02:02:32.800Z,0
2016-12-09T02:04:03.664Z,0
2016-12-09T02:05:34.850Z,0
2016-12-09T02:07:05.854Z,0
2016-12-09T02:08:36.768Z,0
2016-12-09T02:10:07.835Z,0
2016-12-09T02:11:19.502Z,0
2016-12-09T02:12:50.746Z,0
2016-12-09T02:14:21.699Z,0
2016-12-09T02:15:47.743Z,0
2016-12-09T02:16:59.418Z,0
2016-12-09T02:18:32.194Z,0
2016-12-09T02:20:03.157Z,0
2016-12-09T02:21:35.001Z,0
2016-12-09T02:23:06.461Z,0
2016-12-09T02:24:37.381Z,0
2016-12-09T02:26:08.737Z,0
2016-12-09T02:27:20.974Z,0
2016-12-09T02:28:52.011Z,0
2016-12-09T02:30:23.510Z,0
2016-12-09T02:31:55.044Z,0
2016-12-09T02:33:26.372Z,0
2016-12-09T02:34:57.579Z,0
2016-12-09T02:36:28.937Z,0
2016-12-09T02:37:40.916Z,0
2016-12-09T02:39:11.785Z,0
2016-12-09T02:40:43.049Z,0
2016-12-09T02:42:14.710Z,0
2016-12-09T02:43:45.813Z,0
2016-12-09T02:45:16.717Z,0
2016-12-09T02:46:28.472Z,0
2016-12-09T02:48:00.244Z,0
2016-12-09T02:49:34.103Z,0
2016-12-09T02:51:05.383Z,0
2016-12-09T02:52:31.394Z,0
2016-12-09T02:53:43.141Z,0
2016-12-09T02:55:09.183Z,0
2016-12-09T02:56:39.864Z,0
2016-12-09T02:58:11.370Z,0
2016-12-09T02:59:23.224Z,0
2016-12-09T03:00:54.240Z,0
2016-12-09T03:02:25.406Z,0
2016-12-09T03:03:56.579Z,0
2016-12-09T03:05:27.484Z,0
2016-12-09T03:06:58.750Z,0
2016-12-09T03:08:10.503Z,0
2016-12-09T03:09:41.703Z,0
2016-12-09T03:11:12.996Z,0
2016-12-09T03:13:51.669Z,0
2016-12-09T03:15:22.873Z,0
2016-12-09T03:16:54.145Z,0
2016-12-09T03:18:25.134Z,0
2016-12-09T03:19:36.781Z,0
2016-12-09T03:21:08.362Z,0
2016-12-09T03:22:39.740Z,0
2016-12-09T03:24:10.874Z,0
2016-12-09T03:25:36.822Z,0
2016-12-09T03:26:48.478Z,0
2016-12-09T03:28:19.636Z,0
2016-12-09T03:29:50.804Z,0
2016-12-09T03:31:21.969Z,0
2016-12-09T03:32:53.167Z,0
2016-12-09T03:34:04.815Z,0
2016-12-09T03:35:35.914Z,0
2016-12-09T03:37:07.921Z,0
2016-12-09T03:38:39.077Z,0
2016-12-09T03:40:10.546Z,0
2016-12-09T03:41:41.973Z,0
2016-12-09T03:43:12.935Z,0
2016-12-09T03:44:24.610Z,0
2016-12-09T03:45:55.745Z,0
2016-12-09T03:47:27.598Z,0
2016-12-09T03:48:58.507Z,0
2016-12-09T03:50:24.892Z,0
2016-12-09T03:51:36.946Z,0
2016-12-09T03:53:07.712Z,0
2016-12-09T03:54:39.185Z,0
2016-12-09T03:56:10.571Z,0
2016-12-09T03:57:41.533Z,0
2016-12-09T03:59:12.630Z,0
2016-12-09T04:00:24.859Z,0
2016-12-09T04:01:56.354Z,0
2016-12-09T04:03:27.571Z,0
2016-12-09T04:04:58.594Z,0
2016-12-09T04:06:31.656Z,0
2016-12-09T04:08:05.000Z,0
2016-12-09T04:09:35.998Z,0
2016-12-09T04:11:08.632Z,0
2016-12-09T04:12:40.216Z,0
2016-12-09T04:13:52.142Z,0
2016-12-09T04:15:44.634Z,0
2016-12-09T04:16:57.248Z,0
2016-12-09T04:18:27.966Z,0
2016-12-09T04:20:33.595Z,0
2016-12-09T04:22:00.492Z,0
2016-12-09T04:23:12.463Z,0
2016-12-09T04:26:12.367Z,0
2016-12-09T04:27:44.243Z,0
2016-12-09T04:29:15.360Z,0
2016-12-09T04:30:27.083Z,0
2016-12-09T04:31:58.008Z,0
2016-12-09T04:33:29.637Z,0
2016-12-09T04:35:00.731Z,0
2016-12-09T04:37:00.404Z,0
2016-12-09T04:38:38.011Z,0
2016-12-09T04:40:12.030Z,0
2016-12-09T04:41:46.820Z,0
2016-12-09T04:43:44.750Z,0
2016-12-09T04:45:21.240Z,0
2016-12-09T04:47:20.416Z,0
2016-12-09T04:48:59.125Z,0
2016-12-09T04:50:34.092Z,0
2016-12-09T04:52:29.638Z,0
2016-12-09T04:53:42.401Z,0
2016-12-09T04:55:13.568Z,0
2016-12-09T04:57:05.995Z,0
2016-12-09T04:58:17.862Z,0
2016-12-09T04:59:51.941Z,0
2016-12-09T05:01:25.241Z,0
2016-12-09T05:02:56.465Z,0
2016-12-09T05:04:28.807Z,0
2016-12-09T05:06:00.034Z,0
2016-12-09T05:07:31.007Z,0
2016-12-09T05:09:01.992Z,0
2016-12-09T05:10:13.684Z,0
2016-12-09T05:11:45.729Z,0
2016-12-09T05:13:18.088Z,0
2016-12-09T05:14:50.624Z,0
2016-12-09T05:16:21.950Z,0
2016-12-09T05:17:53.247Z,0
2016-12-09T05:19:24.475Z,0
2016-12-09T05:20:55.446Z,0
2016-12-09T05:22:07.549Z,0
2016-12-09T05:23:38.788Z,0
2016-12-09T05:25:09.786Z,0
2016-12-09T05:26:41.090Z,0
2016-12-09T05:28:12.315Z,0
2016-12-09T05:29:44.229Z,0
2016-12-09T05:31:15.202Z,0
2016-12-09T05:32:27.376Z,0
2016-12-09T05:33:59.329Z,0
2016-12-09T05:35:30.922Z,0
2016-12-09T05:37:02.121Z,0
2016-12-09T05:38:34.062Z,0
2016-12-09T05:40:05.802Z,0
2016-12-09T05:41:37.387Z,0
2016-12-09T05:43:08.665Z,0
2016-12-09T05:44:40.447Z,0
2016-12-09T05:45:52.947Z,0
2016-12-09T05:47:24.457Z,0
2016-12-09T05:48:57.085Z,0
2016-12-09T05:50:30.308Z,0
2016-12-09T05:52:01.781Z,0
2016-12-09T05:53:33.343Z,0
2016-12-09T05:55:07.708Z,0
2016-12-09T05:56:41.153Z,0
2016-12-09T05:58:14.844Z,0
2016-12-09T05:59:46.592Z,0
2016-12-09T06:01:17.630Z,0
2016-12-09T06:02:48.494Z,0
2016-12-09T06:04:19.705Z,0
2016-12-09T06:05:31.658Z,0
2016-12-09T06:07:02.631Z,0
2016-12-09T06:08:33.638Z,0
2016-12-09T06:10:05.118Z,0
2016-12-09T06:11:36.073Z,0
2016-12-09T06:13:07.053Z,0
2016-12-09T06:14:18.716Z,0
2016-12-09T06:15:49.591Z,0
2016-12-09T06:17:21.491Z,0
2016-12-09T06:18:52.541Z,0
2016-12-09T06:20:23.492Z,0
2016-12-09T06:21:54.792Z,0
2016-12-09T06:23:25.952Z,0
2016-12-09T06:24:38.041Z,0
2016-12-09T06:26:08.911Z,0
2016-12-09T06:27:40.297Z,0
2016-12-09T06:29:11.182Z,0
2016-12-09T06:30:42.388Z,0
2016-12-09T06:32:13.328Z,0
2016-12-09T06:33:25.003Z,0
2016-12-09T06:34:56.333Z,0
2016-12-09T06:36:27.395Z,0
2016-12-09T06:37:58.546Z,0
2016-12-09T06:39:30.051Z,0
2016-12-09T06:41:00.958Z,0
2016-12-09T06:42:12.988Z,0
2016-12-09T06:43:44.619Z,0
2016-12-09T06:45:15.842Z,0
2016-12-09T06:46:41.861Z,0
2016-12-09T06:47:53.650Z,0
2016-12-09T06:49:24.651Z,0
2016-12-09T06:50:55.774Z,0
2016-12-09T06:52:26.717Z,0
2016-12-09T06:53:57.604Z,0
2016-12-09T06:55:28.624Z,0
2016-12-09T06:56:40.963Z,0
2016-12-09T06:58:12.076Z,0
2016-12-09T06:59:42.973Z,0
2016-12-09T07:01:13.773Z,0
2016-12-09T07:02:45.005Z,0
2016-12-09T07:04:16.428Z,0
2016-12-09T07:05:47.504Z,0
2016-12-09T07:07:00.089Z,0
2016-12-09T07:08:31.327Z,0
2016-12-09T07:10:02.535Z,0
2016-12-09T07:11:33.670Z,0
2016-12-09T07:13:04.876Z,0
2016-12-09T07:14:36.332Z,0
2016-12-09T07:16:07.327Z,0
2016-12-09T07:17:19.460Z,0
2016-12-09T07:18:50.683Z,0
2016-12-09T07:20:22.285Z,5
2016-12-09T07:21:53.287Z,5
2016-12-09T07:23:24.196Z,5
2016-12-09T07:24:55.312Z,5
2016-12-09T07:26:28.705Z,5
2016-12-09T07:27:40.963Z,5
2016-12-09T07:29:07.046Z,5
2016-12-09T07:30:38.140Z,5
2016-12-09T07:32:09.081Z,5
2016-12-09T07:33:21.021Z,5
2016-12-09T07:34:52.258Z,10
2016-12-09T07:36:23.073Z,10
2016-12-09T07:37:54.698Z,5
2016-12-09T07:39:25.781Z,10
2016-12-09T07:40:52.174Z,10
2016-12-09T07:42:04.556Z,10
2016-12-09T07:43:35.325Z,10
2016-12-09T07:45:06.481Z,10
2016-12-09T07:46:37.452Z,15
2016-12-09T07:47:49.729Z,15
2016-12-09T07:49:20.987Z,15
2016-12-09T07:50:52.491Z,20
2016-12-09T07:52:23.306Z,20
2016-12-09T07:53:54.597Z,20
2016-12-09T07:55:25.463Z,20
2016-12-09T07:56:56.340Z,20
2016-12-09T07:58:08.711Z,20
2016-12-09T07:59:39.708Z,20
2016-12-09T08:01:10.882Z,20
2016-12-09T08:02:42.275Z,20
2016-12-09T08:04:13.480Z,20
2016-12-09T08:05:44.449Z,20
2016-12-09T08:06:56.323Z,20
2016-12-09T08:08:27.560Z,20
2016-12-09T08:09:59.084Z,20
2016-12-09T08:11:30.052Z,20
2016-12-09T08:13:01.220Z,20
2016-12-09T08:14:32.276Z,20
2016-12-09T08:16:03.871Z,20
2016-12-09T08:17:15.884Z,20
2016-12-09T08:18:46.758Z,20
2016-12-09T08:20:12.861Z,20
2016-12-09T08:21:24.539Z,20
2016-12-09T08:22:55.883Z,20
2016-12-09T08:24:27.357Z,20
2016-12-09T08:25:58.690Z,20
2016-12-09T08:27:30.168Z,20
2016-12-09T08:29:01.323Z,25
2016-12-09T08:30:32.562Z,25
2016-12-09T08:31:44.248Z,25
2016-12-09T08:33:15.118Z,25
2016-12-09T08:34:46.976Z,30
2016-12-09T08:36:18.224Z,30
2016-12-09T08:37:49.298Z,30
2016-12-09T08:39:14.994Z,35
2016-12-09T08:40:28.780Z,40
2016-12-09T08:41:59.816Z,40
2016-12-09T08:43:31.244Z,40
2016-12-09T08:45:02.707Z,45
2016-12-09T08:46:34.183Z,45
2016-12-09T08:48:06.184Z,45
2016-12-09T08:49:18.041Z,40
2016-12-09T08:50:48.993Z,45
2016-12-09T08:52:20.260Z,40
2016-12-09T08:53:51.482Z,35
2016-12-09T08:55:22.655Z,35
2016-12-09T08:56:56.025Z,35
2016-12-09T08:58:27.186Z,35
2016-12-09T08:59:58.875Z,35
2016-12-09T09:01:11.867Z,35
2016-12-09T09:02:42.976Z,35
2016-12-09T09:04:13.974Z,35
2016-12-09T09:05:45.205Z,35
2016-12-09T09:07:16.135Z,35
2016-12-09T09:08:47.351Z,30
2016-12-09T09:10:18.319Z,30
2016-12-09T09:11:30.104Z,35
2016-12-09T09:13:01.538Z,35
2016-12-09T09:14:32.242Z,35
2016-12-09T09:16:03.236Z,35
2016-12-09T09:17:15.352Z,35
2016-12-09T09:18:46.779Z,35
2016-12-09T09:20:17.952Z,40
2016-12-09T09:21:48.942Z,40
2016-12-09T09:23:20.647Z,40
2016-12-09T09:24:52.340Z,40
2016-12-09T09:26:23.861Z,45
2016-12-09T09:27:35.653Z,50
2016-12-09T09:29:06.901Z,50
2016-12-09T09:30:39.432Z,45
2016-12-09T09:32:10.433Z,40
2016-12-09T09:33:42.103Z,45
2016-12-09T09:35:13.653Z,45
2016-12-09T09:36:44.827Z,40
2016-12-09T09:37:56.601Z,40
2016-12-09T09:39:27.696Z,40
2016-12-09T09:40:58.599Z,40
2016-12-09T09:42:29.899Z,40
2016-12-09T09:44:00.836Z,45
2016-12-09T09:45:32.337Z,45
2016-12-09T09:47:03.188Z,45
2016-12-09T09:48:16.042Z,50
2016-12-09T09:49:47.364Z,55
2016-12-09T09:51:18.157Z,55
2016-12-09T09:52:49.683Z,60
2016-12-09T09:54:20.932Z,55
2016-12-09T09:55:51.858Z,55
2016-12-09T09:57:03.582Z,45
2016-12-09T09:58:34.651Z,45
2016-12-09T10:00:06.110Z,50
2016-12-09T10:01:37.204Z,50
2016-12-09T10:03:08.229Z,45
2016-12-09T10:04:39.815Z,45
2016-12-09T10:06:10.913Z,45
2016-12-09T10:07:22.833Z,50
2016-12-09T10:08:53.705Z,40
2016-12-09T10:10:25.490Z,40
2016-12-09T10:11:56.970Z,40
2016-12-09T10:13:28.267Z,40
2016-12-09T10:14:59.334Z,40
2016-12-09T10:16:30.603Z,40
2016-12-09T10:17:42.335Z,40
2016-12-09T10:19:13.269Z,40
2016-12-09T10:20:44.280Z,45
2016-12-09T10:22:15.404Z,50
2016-12-09T10:23:46.899Z,45
2016-12-09T10:25:17.794Z,50
2016-12-09T10:26:29.580Z,50
2016-12-09T10:28:02.816Z,55
2016-12-09T10:29:34.114Z,60
2016-12-09T10:31:05.083Z,60
2016-12-09T10:32:36.262Z,60
2016-12-09T10:34:07.784Z,55
2016-12-09T10:37:17.948Z,40
2016-12-09T10:38:48.696Z,40
2016-12-09T10:40:19.939Z,45
2016-12-09T10:41:50.903Z,45
2016-12-09T10:43:02.651Z,45
2016-12-09T10:44:33.702Z,45
2016-12-09T10:46:05.168Z,45
2016-12-09T10:47:36.170Z,50
2016-12-09T10:49:07.209Z,50
2016-12-09T10:50:38.229Z,50
2016-12-09T10:52:09.092Z,55
2016-12-09T10:53:21.433Z,55
2016-12-09T10:54:52.329Z,55
2016-12-09T10:56:23.056Z,65
2016-12-09T10:57:53.989Z,65
2016-12-09T10:59:24.869Z,65
2016-12-09T11:00:36.788Z,60
2016-12-09T11:02:03.008Z,55
2016-12-09T11:03:33.921Z,50
2016-12-09T11:05:05.640Z,45
2016-12-09T11:06:17.702Z,45
2016-12-09T11:07:44.030Z,45
2016-12-09T11:09:15.061Z,45
2016-12-09T11:10:46.588Z,50
2016-12-09T11:12:18.185Z,50
2016-12-09T11:13:30.946Z,50
2016-12-09T11:15:02.174Z,50
2016-12-09T11:16:33.952Z,45
2016-12-09T11:18:05.723Z,45
2016-12-09T11:20:03.359Z,50
2016-12-09T11:21:15.690Z,50
2016-12-09T11:22:47.054Z,55
2016-12-09T11:24:18.090Z,55
2016-12-09T11:25:49.709Z,55
2016-12-09T11:27:02.021Z,55
2016-12-09T11:28:33.623Z,55
2016-12-09T11:30:04.914Z,60
2016-12-09T11:31:35.657Z,65
2016-12-09T11:33:06.789Z,55
2016-12-09T11:34:37.736Z,50
2016-12-09T11:35:49.451Z,50
2016-12-09T11:37:20.412Z,55
2016-12-09T11:38:51.890Z,55
2016-12-09T11:40:22.603Z,65
2016-12-09T11:41:53.503Z,65
2016-12-09T11:43:24.804Z,60
2016-12-09T11:44:36.554Z,55
2016-12-09T11:46:07.794Z,45
2016-12-09T11:47:39.366Z,45
2016-12-09T11:49:10.088Z,40
2016-12-09T11:50:41.539Z,40
2016-12-09T11:52:13.783Z,45
2016-12-09T11:53:44.750Z,40
2016-12-09T11:55:16.581Z,45
2016-12-09T11:56:28.305Z,50
2016-12-09T11:57:59.578Z,50
2016-12-09T11:59:32.771Z,45
2016-12-09T12:01:05.566Z,45
2016-12-09T12:02:37.262Z,45
2016-12-09T12:04:08.595Z,45
2016-12-09T12:05:40.015Z,45
2016-12-09T12:07:11.199Z,45
2016-12-09T12:08:42.407Z,45
2016-12-09T12:09:54.342Z,40
2016-12-09T12:11:26.480Z,40
2016-12-09T12:12:58.101Z,40
2016-12-09T12:15:37.193Z,35
2016-12-09T12:17:08.801Z,40
2016-12-09T12:18:40.668Z,40
2016-12-09T12:20:12.591Z,35
2016-12-09T12:21:43.484Z,35
2016-12-09T12:22:55.610Z,35
2016-12-09T12:24:21.365Z,35
2016-12-09T12:25:52.112Z,35
2016-12-09T12:27:23.009Z,40
2016-12-09T12:28:35.092Z,40
2016-12-09T12:30:06.488Z,35
2016-12-09T12:31:37.289Z,35
2016-12-09T12:33:08.962Z,35
2016-12-09T12:34:40.379Z,35
2016-12-09T12:36:11.407Z,35
2016-12-09T12:37:23.287Z,35
2016-12-09T12:38:54.399Z,35
2016-12-09T12:40:25.708Z,30
2016-12-09T12:41:56.611Z,35
2016-12-09T12:43:27.491Z,35
2016-12-09T12:44:58.972Z,30
2016-12-09T12:46:30.152Z,35
2016-12-09T12:47:42.021Z,35
2016-12-09T12:49:13.084Z,40
2016-12-09T12:50:44.414Z,40
2016-12-09T12:52:10.266Z,35
2016-12-09T12:53:23.368Z,35
2016-12-09T12:54:54.508Z,35
2016-12-09T12:56:26.212Z,35
2016-12-09T12:57:57.829Z,35
2016-12-09T12:59:28.958Z,35
2016-12-09T13:01:00.718Z,30
2016-12-09T13:02:31.586Z,30
2016-12-09T13:03:43.362Z,25
2016-12-09T13:05:14.904Z,30
2016-12-09T13:06:47.190Z,30
2016-12-09T13:08:18.577Z,25
2016-12-09T13:09:49.578Z,25
2016-12-09T13:11:20.521Z,20
2016-12-09T13:12:51.766Z,15
2016-12-09T13:14:03.908Z,15
2016-12-09T13:15:35.244Z,15
2016-12-09T13:17:06.329Z,15
2016-12-09T13:18:37.362Z,20
2016-12-09T13:20:08.644Z,25
2016-12-09T13:22:15.540Z,25
2016-12-09T13:23:46.355Z,30
2016-12-09T13:25:17.329Z,30
2016-12-09T13:26:48.236Z,30
2016-12-09T13:27:59.953Z,30
2016-12-09T13:29:31.484Z,35
2016-12-09T13:31:04.844Z,35
2016-12-09T13:32:30.717Z,35
2016-12-09T13:33:42.579Z,35
2016-12-09T13:35:08.964Z,30
2016-12-09T13:36:22.626Z,30
2016-12-09T13:37:54.625Z,30
2016-12-09T13:39:27.952Z,30
2016-12-09T13:40:59.360Z,30
2016-12-09T13:42:30.656Z,30
2016-12-09T13:44:02.798Z,30
2016-12-09T13:45:14.745Z,30
2016-12-09T13:46:46.252Z,25
2016-12-09T13:48:17.730Z,30
2016-12-09T13:49:49.080Z,30
2016-12-09T13:51:20.809Z,30
2016-12-09T13:52:52.499Z,30
2016-12-09T13:54:24.079Z,25
2016-12-09T13:55:55.342Z,25
2016-12-09T13:57:07.272Z,20
2016-12-09T13:58:38.575Z,25
2016-12-09T14:00:11.578Z,25
2016-12-09T14:01:43.275Z,25
2016-12-09T14:03:15.378Z,25
2016-12-09T14:04:47.003Z,25
2016-12-09T14:06:18.232Z,25
2016-12-09T14:07:49.503Z,25
2016-12-09T14:09:21.479Z,25
2016-12-09T14:10:33.279Z,25
2016-12-09T14:12:04.469Z,25
2016-12-09T14:13:35.844Z,20
2016-12-09T14:15:07.995Z,20
2016-12-09T14:16:39.084Z,20
2016-12-09T14:18:10.583Z,25
2016-12-09T14:19:41.463Z,25
2016-12-09T14:20:53.441Z,25
2016-12-09T14:22:25.065Z,20
2016-12-09T14:23:56.056Z,20
2016-12-09T14:25:26.918Z,15
2016-12-09T14:26:59.937Z,15
2016-12-09T14:28:31.281Z,15
2016-12-09T14:30:03.251Z,15
2016-12-09T14:31:34.146Z,15
2016-12-09T14:32:45.873Z,15
2016-12-09T14:34:17.006Z,15
2016-12-09T14:35:48.442Z,15
2016-12-09T14:37:19.399Z,15
2016-12-09T14:38:50.242Z,15
2016-12-09T14:40:21.174Z,15
2016-12-09T14:41:34.441Z,15
2016-12-09T14:43:05.311Z,15
2016-12-09T14:44:36.575Z,15
2016-12-09T14:46:07.312Z,15
2016-12-09T14:47:38.426Z,15
2016-12-09T14:49:09.283Z,10
2016-12-09T14:50:21.443Z,10
2016-12-09T14:51:47.188Z,10
2016-12-09T14:53:18.214Z,10
2016-12-09T14:54:51.200Z,10
2016-12-09T14:56:22.495Z,10
2016-12-09T14:57:34.609Z,10
2016-12-09T14:59:05.713Z,10
2016-12-09T15:00:36.586Z,10
2016-12-09T15:02:10.068Z,10
2016-12-09T15:04:08.459Z,10
2016-12-09T15:05:36.904Z,10
2016-12-09T15:06:48.702Z,10
2016-12-09T15:08:19.663Z,10
2016-12-09T15:09:50.635Z,5
2016-12-09T15:11:21.703Z,5
2016-12-09T15:12:33.406Z,5
2016-12-09T15:14:04.164Z,5
2016-12-09T15:15:35.359Z,5
2016-12-09T15:17:07.408Z,5
2016-12-09T15:18:39.173Z,5
2016-12-09T15:19:50.889Z,0
2016-12-09T15:21:47.409Z,0
2016-12-09T15:23:18.324Z,0
2016-12-09T15:24:30.277Z,0
2016-12-09T15:26:01.293Z,0
2016-12-09T15:27:32.471Z,0
2016-12-09T15:29:03.516Z,0
2016-12-09T15:30:34.816Z,0
2016-12-09T15:32:00.737Z,0
2016-12-09T15:33:12.798Z,0
2016-12-09T15:34:43.688Z,0
2016-12-09T15:36:14.791Z,0
2016-12-09T15:37:46.197Z,0
2016-12-09T15:38:57.919Z,0
2016-12-09T15:40:28.873Z,0
2016-12-09T15:42:01.813Z,0
2016-12-09T15:43:32.977Z,0
2016-12-09T15:45:05.870Z,0
2016-12-09T15:46:37.240Z,0
2016-12-09T15:48:08.320Z,0
2016-12-09T15:49:34.538Z,0
2016-12-09T15:50:48.599Z,0
2016-12-09T15:52:20.374Z,0
2016-12-09T15:53:54.924Z,0
2016-12-09T15:55:27.240Z,0
2016-12-09T15:56:53.773Z,0
2016-12-09T15:58:05.751Z,0
2016-12-09T15:59:37.687Z,0
2016-12-09T16:01:08.740Z,0
2016-12-09T16:02:40.340Z,0
2016-12-09T16:04:11.867Z,0
2016-12-09T16:05:24.299Z,0
2016-12-09T16:06:55.284Z,0
2016-12-09T16:08:26.621Z,0
2016-12-09T16:09:57.764Z,0
2016-12-09T16:11:30.220Z,0
2016-12-09T16:13:01.338Z,0
2016-12-09T16:14:32.412Z,0
2016-12-09T16:15:44.410Z,0
2016-12-09T16:17:17.366Z,0
2016-12-09T16:18:43.266Z,0
2016-12-09T16:20:14.354Z,0
2016-12-09T16:21:45.311Z,0
2016-12-09T16:22:57.181Z,0
2016-12-09T16:24:28.125Z,0
2016-12-09T16:25:58.998Z,0
2016-12-09T16:27:30.186Z,0
2016-12-09T16:29:01.649Z,0
2016-12-09T16:30:33.219Z,0
2016-12-09T16:31:45.435Z,0
2016-12-09T16:33:38.692Z,0
2016-12-09T16:34:51.161Z,0
2016-12-09T16:36:22.357Z,0
2016-12-09T16:37:53.835Z,0
2016-12-09T16:39:20.789Z,0
2016-12-09T16:40:52.948Z,0
2016-12-09T16:42:05.247Z,0
2016-12-09T16:43:36.534Z,0
2016-12-09T16:45:07.514Z,0
2016-12-09T16:46:40.800Z,0
2016-12-09T16:48:14.218Z,0
2016-12-09T16:49:47.509Z,0
2016-12-09T16:51:19.340Z,0
2016-12-09T16:52:50.663Z,0
2016-12-09T16:54:22.775Z,0
2016-12-09T16:55:53.871Z,0
2016-12-09T16:57:25.274Z,0
2016-12-09T16:58:56.625Z,0
2016-12-09T17:00:09.001Z,0
2016-12-09T17:02:01.319Z,0
2016-12-09T17:03:13.639Z,0
2016-12-09T17:04:46.003Z,0
2016-12-09T17:06:16.953Z,0
2016-12-09T17:07:48.148Z,0
2016-12-09T17:09:20.164Z,0
2016-12-09T17:10:51.408Z,0
2016-12-09T17:12:23.417Z,0
2016-12-09T17:14:01.454Z,0
2016-12-09T17:15:27.662Z,0
2016-12-09T17:16:39.447Z,0
2016-12-09T17:18:10.299Z,0
2016-12-09T17:19:42.138Z,0
2016-12-09T17:21:14.075Z,0
2016-12-09T17:22:45.248Z,0
2016-12-09T17:24:16.610Z,0
2016-12-09T17:25:28.358Z,0
2016-12-09T17:26:59.650Z,0
2016-12-09T17:28:32.448Z,0
2016-12-09T17:30:03.798Z,0
2016-12-09T17:31:36.293Z,0
2016-12-09T17:33:07.354Z,0
2016-12-09T17:34:38.587Z,0
2016-12-09T17:36:09.802Z,0
2016-12-09T17:37:21.582Z,0
2016-12-09T17:38:52.816Z,0
2016-12-09T17:40:23.919Z,0
2016-12-09T17:41:55.663Z,0
2016-12-09T17:43:27.476Z,0
2016-12-09T17:44:59.794Z,0
2016-12-09T17:46:31.152Z,0
2016-12-09T17:48:04.161Z,0
2016-12-09T17:49:35.942Z,0
2016-12-09T17:51:07.589Z,0
2016-12-09T17:52:20.359Z,0
2016-12-09T17:53:52.402Z,0
2016-12-09T17:55:23.478Z,0
2016-12-09T17:56:54.878Z,0
2016-12-09T17:58:27.075Z,0
2016-12-09T17:59:53.699Z,0
2016-12-09T18:01:05.593Z,0
2016-12-09T18:02:37.426Z,0
2016-12-09T18:04:04.089Z,0
2016-12-09T18:05:38.531Z,0
2016-12-09T18:07:09.567Z,0
2016-12-09T18:08:21.415Z,0
2016-12-09T18:09:52.579Z,0
2016-12-09T18:11:23.966Z,0
2016-12-09T18:12:55.245Z,0
2016-12-09T18:14:26.267Z,0
2016-12-09T18:15:57.160Z,0
2016-12-09T18:17:09.017Z,0
2016-12-09T18:18:40.313Z,0
2016-12-09T18:20:11.603Z,0
2016-12-09T18:21:43.133Z,0
2016-12-09T18:23:14.339Z,0
2016-12-09T18:24:45.530Z,0
2016-12-09T18:26:16.547Z,0
2016-12-09T18:27:28.453Z,0
2016-12-09T18:28:59.812Z,0
2016-12-09T18:30:30.952Z,0
2016-12-09T18:32:02.649Z,0
2016-12-09T18:33:29.193Z,0
2016-12-09T18:34:41.151Z,0
2016-12-09T18:36:12.960Z,0
2016-12-09T18:37:46.248Z,0
2016-12-09T18:39:47.695Z,0
2016-12-09T18:41:13.542Z,0
2016-12-09T18:42:25.477Z,0
2016-12-09T18:43:57.730Z,0
2016-12-09T18:45:29.172Z,0
2016-12-09T18:47:00.416Z,0
2016-12-09T18:48:32.427Z,0
2016-12-09T18:50:04.631Z,0
2016-12-09T18:51:36.217Z,0
2016-12-09T18:53:07.969Z,0
2016-12-09T18:54:19.877Z,0
2016-12-09T18:55:51.214Z,0
2016-12-09T18:57:17.112Z,0
2016-12-09T18:58:29.223Z,0
2016-12-09T19:00:01.071Z,0
2016-12-09T19:01:31.973Z,0
2016-12-09T19:03:03.146Z,0
2016-12-09T19:04:34.453Z,0
2016-12-09T19:06:05.948Z,0
2016-12-09T19:07:36.895Z,0
2016-12-09T19:08:49.122Z,0
2016-12-09T19:10:15.203Z,0
2016-12-09T19:11:46.568Z,0
2016-12-09T19:13:18.239Z,0
2016-12-09T19:14:30.199Z,0
2016-12-09T19:16:01.418Z,0
2016-12-09T19:17:33.619Z,0
2016-12-09T19:19:05.269Z,0
2016-12-09T19:20:36.883Z,0
2016-12-09T19:22:08.642Z,0
2016-12-09T19:23:40.241Z,0
2016-12-09T19:25:06.473Z,0
2016-12-09T19:26:18.523Z,0
2016-12-09T19:27:49.893Z,0
2016-12-09T19:29:21.153Z,0
2016-12-09T19:30:52.247Z,0
2016-12-09T19:32:23.899Z,0
2016-12-09T19:33:35.617Z,0
2016-12-09T19:35:06.942Z,0
2016-12-09T19:36:40.203Z,0
2016-12-09T19:38:06.015Z,0
2016-12-09T19:39:17.767Z,0
2016-12-09T19:40:48.744Z,0
2016-12-09T19:42:19.570Z,0
2016-12-09T19:43:50.905Z,0
2016-12-09T19:45:22.077Z,0
2016-12-09T19:46:53.190Z,0
2016-12-09T19:48:24.698Z,0
2016-12-09T19:49:36.679Z,0
2016-12-09T19:51:08.417Z,0
2016-12-09T19:52:41.385Z,0
2016-12-09T19:54:13.651Z,0
2016-12-09T19:55:45.613Z,0
2016-12-09T19:57:16.882Z,0
2016-12-09T19:58:48.171Z,0
2016-12-09T20:00:19.709Z,0
2016-12-09T20:01:50.949Z,0
2016-12-09T20:03:02.771Z,0
2016-12-09T20:04:34.221Z,0
2016-12-09T20:06:06.008Z,0
2016-12-09T20:07:37.233Z,0
2016-12-09T20:09:08.954Z,0
2016-12-09T20:10:40.263Z,0
2016-12-09T20:12:11.326Z,0
2016-12-09T20:13:23.628Z,0
2016-12-09T20:14:54.858Z,0
2016-12-09T20:16:26.604Z,0
2016-12-09T20:17:57.412Z,0
2016-12-09T20:19:32.099Z,0
2016-12-09T20:20:43.802Z,0
2016-12-09T20:22:15.622Z,0
2016-12-09T20:23:47.492Z,0
2016-12-09T20:25:15.094Z,0
2016-12-09T20:26:46.654Z,0
2016-12-09T20:27:58.467Z,0
2016-12-09T20:29:29.630Z,0
2016-12-09T20:31:01.936Z,0
2016-12-09T20:32:33.765Z,0
2016-12-09T20:34:05.344Z,0
2016-12-09T20:35:37.725Z,0
2016-12-09T20:37:10.665Z,0
2016-12-09T20:38:42.564Z,0
2016-12-09T20:40:13.980Z,0
2016-12-09T20:41:45.674Z,0
2016-12-09T20:43:14.398Z,0
2016-12-09T20:44:26.845Z,0
2016-12-09T20:45:58.039Z,0
2016-12-09T20:47:29.731Z,0
2016-12-09T20:49:01.321Z,0
2016-12-09T20:50:32.412Z,0
2016-12-09T20:51:44.838Z,0
2016-12-09T20:53:10.683Z,0
2016-12-09T20:54:41.769Z,0
2016-12-09T20:56:13.046Z,0
2016-12-09T20:57:24.898Z,0
2016-12-09T20:58:56.149Z,0
2016-12-09T21:00:22.030Z,0
2016-12-09T21:01:53.437Z,0
2016-12-09T21:03:05.817Z,0
2016-12-09T21:04:36.805Z,0
2016-12-09T21:06:07.780Z,0
2016-12-09T21:07:41.436Z,0
2016-12-09T21:09:12.728Z,0
2016-12-09T21:10:44.326Z,0
2016-12-09T21:12:15.585Z,0
2016-12-09T21:13:46.978Z,0
2016-12-09T21:14:58.837Z,0
2016-12-09T21:16:29.865Z,0
2016-12-09T21:17:56.732Z,0
2016-12-09T21:19:27.799Z,0
2016-12-09T21:20:39.530Z,0
2016-12-09T21:22:10.735Z,0
2016-12-09T21:23:42.057Z,0
2016-12-09T21:25:13.053Z,0
2016-12-09T21:26:51.060Z,0
2016-12-09T21:28:22.469Z,0
2016-12-09T21:29:53.737Z,0
2016-12-09T21:31:24.672Z,0
2016-12-09T21:32:55.747Z,0
2016-12-09T21:34:26.754Z,0
2016-12-09T21:35:38.531Z,0
2016-12-09T21:37:10.015Z,0
2016-12-09T21:38:35.908Z,0
2016-12-09T21:39:47.784Z,0